Time;durP1;ratioP1;P1;durP2;ratioP2;P2;SDS_P1;SDS_P2;PMS_P1;PMS_P2;Temp;Humidity;BMP_temperature;BMP_pressure;BME280_temperature;BME280_humidity;BME280_pressure;Samples;Min_cycle;Max_cycle;Signal;HPM_P1;HPM_P2
2022/09/19 00:00:28;;;;;;;3.27;2.60;;;;;;;22.80;36.74;95114.19;6162572;28;104226;-76
2022/09/19 00:03:32;;;;;;;2.53;2.33;;;;;;;22.82;36.72;95114.66;6162968;28;102813;-77
2022/09/19 00:06:38;;;;;;;2.40;2.20;;;;;;;22.72;36.99;95094.38;6155544;28;103172;-76
2022/09/19 00:09:41;;;;;;;2.33;2.13;;;;;;;22.70;36.71;95097.38;6138774;28;107048;-77
2022/09/19 00:12:44;;;;;;;3.23;2.40;;;;;;;22.78;36.54;95106.47;6138887;28;106372;-76
2022/09/19 00:15:49;;;;;;;2.10;1.90;;;;;;;22.78;36.93;95111.81;6138957;28;103605;-76
2022/09/19 00:18:54;;;;;;;1.90;1.80;;;;;;;22.77;36.62;95102.25;6141826;28;103542;-76
2022/09/19 00:22:00;;;;;;;2.63;1.90;;;;;;;22.75;36.74;95099.09;6162099;28;103638;-75
2022/09/19 00:25:03;;;;;;;2.60;2.20;;;;;;;22.74;37.13;95099.41;6162676;28;103113;-75
2022/09/19 00:28:06;;;;;;;2.00;1.90;;;;;;;22.73;36.56;95101.28;6161672;28;102898;-77
2022/09/19 00:31:17;;;;;;;2.17;1.97;;;;;;;22.74;36.63;95096.75;6166046;28;103137;-75
2022/09/19 00:34:22;;;;;;;2.00;1.90;;;;;;;22.72;36.39;95099.72;6166283;28;103135;-76
2022/09/19 00:37:26;;;;;;;2.13;2.03;;;;;;;22.73;36.59;95100.50;6149656;28;103100;-76
2022/09/19 00:40:30;;;;;;;1.90;1.77;;;;;;;22.70;36.78;95102.69;6159171;28;103294;-76
2022/09/19 00:43:46;;;;;;;2.53;2.33;;;;;;;22.70;36.49;95099.25;6166584;28;104177;-78
2022/09/19 00:46:53;;;;;;;2.07;1.97;;;;;;;22.71;36.66;95103.47;6166973;28;105397;-76
2022/09/19 00:49:59;;;;;;;2.17;2.07;;;;;;;22.72;36.56;95113.06;6165808;28;103120;-76
2022/09/19 00:53:08;;;;;;;1.80;1.70;;;;;;;22.66;36.63;95101.72;6159401;28;103234;-76
2022/09/19 00:56:11;;;;;;;2.60;2.40;;;;;;;22.68;36.56;95102.22;6165525;28;103338;-76
2022/09/19 00:59:15;;;;;;;2.30;2.10;;;;;;;22.69;36.88;95095.78;6166440;28;104086;-75
2022/09/19 01:02:22;;;;;;;2.07;1.87;;;;;;;22.65;36.36;95099.34;6135630;28;103335;-75
2022/09/19 01:05:30;;;;;;;2.10;1.90;;;;;;;22.67;36.90;95105.97;6161697;28;104013;-76
2022/09/19 01:08:48;;;;;;;2.20;2.00;;;;;;;22.68;36.58;95106.75;6165875;28;104049;-75
2022/09/19 01:12:04;;;;;;;1.87;1.77;;;;;;;22.62;36.63;95098.09;6166311;28;105311;-76
2022/09/19 01:15:30;;;;;;;2.40;2.20;;;;;;;22.60;36.96;95088.84;6159211;28;102785;-77
2022/09/19 01:18:38;;;;;;;2.50;2.30;;;;;;;22.64;36.50;95103.91;6165886;28;103078;-76
2022/09/19 01:21:49;;;;;;;1.97;1.87;;;;;;;22.61;36.30;95104.53;6165561;28;103653;-76
2022/09/19 01:25:12;;;;;;;2.00;1.80;;;;;;;22.64;36.05;95106.56;6159960;28;105183;-78
2022/09/19 01:28:21;;;;;;;2.53;1.73;;;;;;;22.62;36.59;95102.66;6165796;28;104107;-76
2022/09/19 01:31:27;;;;;;;2.00;1.90;;;;;;;22.60;36.49;95091.50;6165726;28;103257;-77
2022/09/19 01:34:33;;;;;;;2.10;1.93;;;;;;;22.52;36.14;95085.03;6164754;28;103127;-75
2022/09/19 01:37:41;;;;;;;2.10;1.90;;;;;;;22.59;36.44;95073.94;6158123;28;105617;-76
2022/09/19 01:40:45;;;;;;;2.23;2.13;;;;;;;22.60;35.94;95081.63;6164574;28;103124;-76
2022/09/19 01:43:51;;;;;;;2.13;1.93;;;;;;;22.59;36.25;95080.03;6165285;28;103778;-75
2022/09/19 01:47:02;;;;;;;2.00;1.90;;;;;;;22.56;36.26;95074.53;6162876;28;103120;-77
2022/09/19 01:50:10;;;;;;;1.80;1.70;;;;;;;22.58;35.99;95075.81;6161016;28;105147;-76
2022/09/19 01:53:30;;;;;;;1.77;1.67;;;;;;;22.57;35.48;95076.91;6165128;28;103806;-76
2022/09/19 01:56:41;;;;;;;2.37;2.20;;;;;;;22.54;36.33;95071.38;6164270;28;107320;-77
2022/09/19 02:00:03;;;;;;;2.37;1.93;;;;;;;22.51;35.84;95071.97;6157871;28;103345;-77
2022/09/19 02:03:17;;;;;;;1.90;1.80;;;;;;;22.52;35.68;95070.91;6162035;28;103059;-77
2022/09/19 02:06:29;;;;;;;1.30;1.20;;;;;;;22.50;35.49;95065.84;6165274;28;102989;-77
2022/09/19 02:09:42;;;;;;;2.30;1.80;;;;;;;22.50;35.94;95065.84;6164725;28;105190;-78
2022/09/19 02:12:52;;;;;;;1.87;1.50;;;;;;;22.51;35.91;95064.75;6161214;28;105156;-75
2022/09/19 02:16:04;;;;;;;1.63;1.53;;;;;;;22.50;35.52;95060.50;6165155;28;104296;-76
2022/09/19 02:19:12;;;;;;;1.70;1.60;;;;;;;22.50;35.29;95065.06;6165323;28;102780;-76
2022/09/19 02:22:20;;;;;;;1.60;1.50;;;;;;;22.46;35.80;95058.78;6157485;28;104505;-76
2022/09/19 02:25:30;;;;;;;3.13;1.67;;;;;;;22.47;35.46;95060.34;6163999;28;103383;-76
2022/09/19 02:28:39;;;;;;;2.00;1.80;;;;;;;22.47;35.46;95049.69;6163118;28;103355;-75
2022/09/19 02:31:45;;;;;;;2.23;1.70;;;;;;;22.46;35.67;95054.22;6163746;28;103059;-76
2022/09/19 02:34:50;;;;;;;2.00;1.40;;;;;;;22.45;35.63;95051.88;6156966;28;104084;-75
2022/09/19 02:38:01;;;;;;;1.30;1.20;;;;;;;22.47;35.50;95063.78;6164611;28;104569;-75
2022/09/19 02:41:11;;;;;;;1.10;1.00;;;;;;;22.46;35.43;95056.91;6163925;28;103168;-75
2022/09/19 02:44:19;;;;;;;1.67;1.20;;;;;;;22.46;35.96;95053.44;6160519;28;103119;-75
2022/09/19 02:47:29;;;;;;;1.83;1.50;;;;;;;22.48;35.43;95056.59;6162632;28;103121;-75
2022/09/19 02:50:40;;;;;;;1.53;1.43;;;;;;;22.44;35.61;95055.63;6164231;28;103326;-78
2022/09/19 02:53:47;;;;;;;1.50;1.40;;;;;;;22.45;35.45;95057.19;6163494;28;103366;-76
2022/09/19 02:56:52;;;;;;;1.60;1.50;;;;;;;22.43;35.77;95065.50;6157869;28;102929;-75
2022/09/19 02:59:58;;;;;;;2.40;1.70;;;;;;;22.40;35.64;95052.81;6164142;28;106353;-77
2022/09/19 03:04:11;;;;;;;1.33;1.23;;;;;;;22.42;35.53;95058.59;6164639;28;104373;-75
2022/09/19 03:06:38;;;;;;;1.53;1.40;;;;;;;22.45;36.43;95051.88;6161716;28;102713;-77
2022/09/19 03:09:46;;;;;;;1.47;1.37;;;;;;;22.47;36.21;95057.69;6159943;28;103437;-75
2022/09/19 03:12:53;;;;;;;1.80;1.70;;;;;;;22.48;36.07;95054.69;6164522;28;102714;-75
2022/09/19 03:16:02;;;;;;;2.20;1.50;;;;;;;22.48;36.52;95051.25;6164658;28;103011;-75
2022/09/19 03:19:09;;;;;;;1.70;1.30;;;;;;;22.47;36.59;95053.13;6157558;28;103152;-75
2022/09/19 03:22:12;;;;;;;1.67;1.57;;;;;;;22.52;36.34;95063.69;6164565;28;106647;-76
2022/09/19 03:25:16;;;;;;;1.30;1.10;;;;;;;22.51;36.29;95062.09;6163405;28;104310;-75
2022/09/19 03:28:21;;;;;;;2.03;1.40;;;;;;;22.52;36.46;95060.22;6163854;28;103279;-75
2022/09/19 03:31:25;;;;;;;2.80;2.60;;;;;;;22.55;36.44;95067.63;6156810;28;103507;-76
2022/09/19 03:34:32;;;;;;;5.83;3.43;;;;;;;22.45;36.16;95068.66;6162660;28;103119;-74
2022/09/19 03:37:36;;;;;;;13.97;12.87;;;;;;;22.28;34.55;95047.25;6163373;28;103401;-76
2022/09/19 03:40:40;;;;;;;8.93;8.03;;;;;;;22.25;33.98;95061.97;6160693;28;103505;-76
2022/09/19 03:43:43;;;;;;;5.80;5.20;;;;;;;22.21;34.64;95061.03;6134359;28;103364;-77
2022/09/19 03:46:47;;;;;;;6.97;3.53;;;;;;;22.07;34.24;95044.31;6138288;28;103398;-75
2022/09/19 03:49:51;;;;;;;3.90;3.60;;;;;;;21.99;34.25;95043.16;6152893;28;102755;-75
2022/09/19 03:52:55;;;;;;;2.40;2.20;;;;;;;22.02;33.26;95050.56;6156260;28;103369;-76
2022/09/19 03:55:58;;;;;;;3.03;2.80;;;;;;;21.97;33.47;95048.00;6162079;28;103553;-76
2022/09/19 03:59:01;;;;;;;2.50;2.30;;;;;;;21.95;34.63;95034.22;6152624;28;103281;-75
2022/09/19 04:02:04;;;;;;;3.20;3.00;;;;;;;22.01;33.62;95033.00;6158466;28;103681;-74
2022/09/19 04:05:13;;;;;;;7.00;2.90;;;;;;;21.90;33.44;95023.69;6148465;28;104051;-75
2022/09/19 04:08:16;;;;;;;2.63;2.43;;;;;;;21.95;33.17;95033.44;6160312;28;103326;-75
2022/09/19 04:11:20;;;;;;;2.60;2.40;;;;;;;22.00;33.64;95030.63;6162320;28;103462;-78
2022/09/19 04:14:26;;;;;;;2.77;2.03;;;;;;;22.02;33.24;95036.47;6162350;28;103542;-74
2022/09/19 04:17:29;;;;;;;3.97;2.10;;;;;;;21.99;33.83;95035.16;6151374;28;103555;-75
2022/09/19 04:20:34;;;;;;;3.33;2.70;;;;;;;22.08;33.87;95037.91;6162286;28;104399;-76
2022/09/19 04:23:38;;;;;;;7.30;3.20;;;;;;;22.01;34.05;95038.34;6162929;28;106647;-77
2022/09/19 04:26:43;;;;;;;2.30;1.87;;;;;;;21.34;33.18;95035.66;6159834;28;103517;-75
2022/09/19 04:29:48;;;;;;;3.23;2.93;;;;;;;21.39;33.50;95038.19;6159463;28;103103;-80
2022/09/19 04:32:54;;;;;;;3.60;3.30;;;;;;;21.56;33.04;95042.06;6163076;28;103154;-78
2022/09/19 04:36:01;;;;;;;13.10;10.03;;;;;;;21.64;33.08;95044.00;6162901;28;102826;-76
2022/09/19 04:39:06;;;;;;;20.97;19.17;;;;;;;21.65;33.48;95035.72;6155642;28;103170;-74
2022/09/19 04:42:12;;;;;;;14.47;13.30;;;;;;;21.69;33.10;95038.56;6162601;28;102932;-73
2022/09/19 04:45:20;;;;;;;8.33;7.53;;;;;;;21.67;33.60;95043.38;6163097;28;103217;-75
2022/09/19 04:48:26;;;;;;;6.27;5.77;;;;;;;21.63;33.33;95039.75;6163397;28;103123;-77
2022/09/19 04:51:31;;;;;;;6.53;4.80;;;;;;;21.62;32.90;95038.19;6155782;28;102876;-76
2022/09/19 04:54:37;;;;;;;5.90;4.67;;;;;;;21.56;32.93;95036.75;6161805;28;103542;-78
2022/09/19 04:57:40;;;;;;;5.30;3.93;;;;;;;21.04;33.46;95044.25;6162686;28;103071;-75
2022/09/19 05:00:45;;;;;;;8.10;3.70;;;;;;;21.09;32.94;95033.53;6159383;28;103295;-75
2022/09/19 05:03:48;;;;;;;3.77;3.27;;;;;;;21.22;33.34;95038.03;6158877;28;105039;-76
2022/09/19 05:06:53;;;;;;;4.83;4.30;;;;;;;21.31;32.99;95041.53;6162918;28;103217;-77
2022/09/19 05:09:56;;;;;;;4.50;3.93;;;;;;;21.36;33.16;95038.78;6163570;28;106322;-75
2022/09/19 05:12:59;;;;;;;5.10;3.80;;;;;;;21.27;33.15;95039.78;6157319;28;103237;-75
2022/09/19 05:16:03;;;;;;;5.23;3.50;;;;;;;21.38;33.08;95039.28;6165487;28;103540;-75
2022/09/19 05:19:06;;;;;;;4.30;3.90;;;;;;;21.44;33.45;95046.03;6165936;28;103662;-77
2022/09/19 05:22:11;;;;;;;4.17;3.73;;;;;;;21.44;33.87;95040.72;6165738;28;103025;-77
2022/09/19 05:25:17;;;;;;;4.53;4.13;;;;;;;21.42;33.83;95031.47;6159631;28;105235;-77
2022/09/19 05:28:21;;;;;;;5.03;4.63;;;;;;;21.48;33.57;95041.69;6165770;28;103644;-75
2022/09/19 05:31:25;;;;;;;8.40;5.60;;;;;;;21.52;33.46;95053.34;6165604;28;103104;-75
2022/09/19 05:34:28;;;;;;;15.37;13.77;;;;;;;21.42;33.82;95052.75;6164567;28;103098;-78
2022/09/19 05:37:34;;;;;;;18.50;16.90;;;;;;;21.37;34.19;95061.66;6161189;28;103130;-76
2022/09/19 05:40:39;;;;;;;14.30;13.00;;;;;;;21.36;34.58;95059.31;6164923;28;103408;-77
2022/09/19 05:43:44;;;;;;;12.93;11.87;;;;;;;21.36;34.67;95057.44;6165436;28;105552;-76
2022/09/19 05:46:47;;;;;;;14.30;13.00;;;;;;;21.49;35.34;95058.44;6160017;28;104966;-76
2022/09/19 05:49:51;;;;;;;14.50;11.00;;;;;;;21.50;34.21;95062.69;6164677;28;103065;-76
2022/09/19 05:56:16;;;;;;;20.07;18.33;;;;;;;21.55;34.60;95061.81;6164936;28;104884;-76
2022/09/19 05:59:19;;;;;;;17.60;16.17;;;;;;;21.52;34.72;95055.22;6158496;28;103278;-76
2022/09/19 06:02:23;;;;;;;11.10;10.20;;;;;;;21.51;34.74;95053.63;6164944;28;104085;-76
2022/09/19 06:05:26;;;;;;;10.67;9.77;;;;;;;21.54;34.53;95054.91;6164292;28;104137;-77
2022/09/19 06:08:31;;;;;;;11.23;10.30;;;;;;;21.58;34.80;95055.88;6164056;28;103207;-76
2022/09/19 06:11:34;;;;;;;11.97;10.97;;;;;;;21.76;35.01;95057.56;6160469;28;103443;-75
2022/09/19 06:14:38;;;;;;;10.73;9.93;;;;;;;21.85;34.76;95049.69;6164372;28;105113;-78
2022/09/19 06:17:41;;;;;;;13.03;11.90;;;;;;;21.96;34.82;95051.78;6164213;28;103008;-76
2022/09/19 06:20:46;;;;;;;12.23;11.13;;;;;;;21.98;34.37;95051.47;6158582;28;103385;-75
2022/09/19 06:23:50;;;;;;;11.27;10.13;;;;;;;21.87;34.40;95050.94;6163418;28;105207;-76
2022/09/19 06:26:55;;;;;;;10.70;8.50;;;;;;;21.79;34.45;95052.41;6164829;28;103410;-77
2022/09/19 06:29:58;;;;;;;6.87;6.27;;;;;;;21.68;34.33;95063.63;6164353;28;103237;-76
2022/09/19 06:33:02;;;;;;;8.90;8.10;;;;;;;21.74;34.60;95059.75;6159006;28;106422;-76
2022/09/19 06:36:05;;;;;;;8.50;7.80;;;;;;;21.86;35.06;95057.38;6163210;28;102955;-75
2022/09/19 06:39:10;;;;;;;8.70;7.80;;;;;;;22.12;34.71;95052.19;6164277;28;103638;-75
2022/09/19 06:42:13;;;;;;;6.70;6.20;;;;;;;22.19;34.40;95057.09;6164480;28;105583;-77
2022/09/19 06:45:17;;;;;;;8.07;4.30;;;;;;;21.66;34.61;95055.91;6157834;28;103539;-75
2022/09/19 06:48:20;;;;;;;5.43;4.93;;;;;;;21.67;34.41;95056.72;6164548;28;103570;-77
2022/09/19 06:51:24;;;;;;;5.00;4.20;;;;;;;22.05;34.29;95044.63;6163956;28;103075;-75
2022/09/19 06:54:28;;;;;;;6.47;4.60;;;;;;;22.32;33.83;95053.53;6159580;28;103491;-75
2022/09/19 06:57:33;;;;;;;4.27;3.97;;;;;;;22.48;33.94;95057.38;6163861;28;106171;-77
2022/09/19 07:00:38;;;;;;;5.63;4.10;;;;;;;22.54;34.03;95044.72;6163988;28;103688;-76
2022/09/19 07:03:41;;;;;;;7.23;4.50;;;;;;;22.77;34.81;95053.44;6164260;28;103571;-77
2022/09/19 07:06:46;;;;;;;6.80;5.70;;;;;;;22.86;34.28;95040.91;6157304;28;102987;-77
2022/09/19 07:09:50;;;;;;;8.67;7.87;;;;;;;22.99;34.43;95039.97;6163616;28;103015;-77
2022/09/19 07:12:55;;;;;;;9.40;8.60;;;;;;;23.01;34.27;95027.88;6163121;28;103578;-77
2022/09/19 07:16:03;;;;;;;7.10;6.40;;;;;;;23.06;34.77;95032.31;6163802;28;103933;-76
2022/09/19 07:19:06;;;;;;;5.80;5.30;;;;;;;22.99;33.99;95019.41;6157383;28;105277;-78
2022/09/19 07:22:10;;;;;;;5.93;5.33;;;;;;;23.07;34.29;95022.44;6163061;28;103200;-77
2022/09/19 07:25:15;;;;;;;5.33;4.50;;;;;;;23.10;34.06;95027.91;6163170;28;103745;-76
2022/09/19 07:28:20;;;;;;;3.83;3.53;;;;;;;23.10;33.60;95022.59;6160007;28;106923;-76
2022/09/19 07:31:24;;;;;;;5.00;4.50;;;;;;;23.13;33.94;95016.63;6160436;28;104358;-75
2022/09/19 07:34:28;;;;;;;5.53;5.03;;;;;;;23.20;33.46;95024.97;6162465;28;103587;-76
2022/09/19 07:37:31;;;;;;;4.80;4.40;;;;;;;23.24;33.79;95022.44;6161909;28;103716;-76
2022/09/19 07:40:37;;;;;;;4.83;4.30;;;;;;;23.25;33.77;95021.34;6157683;28;103690;-75
2022/09/19 07:43:40;;;;;;;6.10;4.50;;;;;;;23.29;33.33;95017.75;6163488;28;102697;-76
2022/09/19 07:47:26;;;;;;;4.73;4.23;;;;;;;23.33;33.66;95011.78;6163246;28;105346;-75
2022/09/19 07:50:07;;;;;;;3.80;3.50;;;;;;;23.32;33.20;95005.66;6162563;28;103391;-76
2022/09/19 07:53:12;;;;;;;4.83;3.83;;;;;;;23.37;33.22;95005.53;6157151;28;103679;-76
2022/09/19 07:56:17;;;;;;;3.80;3.50;;;;;;;23.39;33.16;94994.53;6163109;28;104100;-77
2022/09/19 07:59:20;;;;;;;3.60;3.30;;;;;;;23.47;33.67;95001.72;6163569;28;106311;-75
2022/09/19 08:02:23;;;;;;;3.97;3.50;;;;;;;23.45;33.55;95004.72;6159442;28;104320;-75
2022/09/19 08:05:28;;;;;;;4.77;3.57;;;;;;;23.47;33.45;94996.38;6160151;28;107520;-75
2022/09/19 08:08:32;;;;;;;3.57;3.23;;;;;;;23.51;32.86;95002.66;6162385;28;103358;-77
2022/09/19 08:11:37;;;;;;;2.97;2.70;;;;;;;23.47;32.57;94994.50;6162639;28;103422;-76
2022/09/19 08:14:41;;;;;;;3.10;2.80;;;;;;;23.52;32.89;94989.03;6155577;28;103722;-77
2022/09/19 08:17:44;;;;;;;2.67;2.30;;;;;;;23.54;32.46;94991.38;6162498;28;103884;-75
2022/09/19 08:20:48;;;;;;;2.63;2.40;;;;;;;23.53;32.17;94984.47;6163045;28;106333;-76
2022/09/19 08:23:52;;;;;;;2.63;2.40;;;;;;;23.52;32.24;94978.34;6162251;28;103626;-77
2022/09/19 08:26:58;;;;;;;6.20;2.63;;;;;;;23.54;32.48;94973.47;6156364;28;103518;-76
2022/09/19 08:30:02;;;;;;;2.67;2.47;;;;;;;23.58;32.04;94977.06;6166478;28;103370;-76
2022/09/19 08:33:07;;;;;;;2.40;2.20;;;;;;;23.61;32.74;94975.63;6162180;28;103539;-75
2022/09/19 08:36:16;;;;;;;4.57;2.73;;;;;;;23.60;32.56;94984.75;6159574;28;103773;-76
2022/09/19 08:39:20;;;;;;;2.57;2.37;;;;;;;23.57;32.35;94980.84;6141721;28;104453;-76
2022/09/19 08:42:32;;;;;;;2.70;2.07;;;;;;;23.51;32.25;94976.75;6162235;28;103402;-76
2022/09/19 08:46:10;;;;;;;2.40;1.93;;;;;;;23.57;31.77;94972.03;6162687;28;106718;-76
2022/09/19 08:49:16;;;;;;;3.03;2.13;;;;;;;23.56;31.66;94970.47;6158876;28;103047;-77
2022/09/19 08:52:29;;;;;;;2.40;1.60;;;;;;;23.62;31.78;94965.75;6166878;28;105276;-76
2022/09/19 08:55:35;;;;;;;2.53;2.23;;;;;;;23.66;31.83;94962.09;6166185;28;103752;-77
2022/09/19 08:58:45;;;;;;;2.77;2.17;;;;;;;23.68;32.49;94975.16;6165896;28;105985;-79
2022/09/19 09:01:52;;;;;;;2.60;2.40;;;;;;;23.71;32.05;94969.97;6162765;28;103030;-75
2022/09/19 09:05:16;;;;;;;4.63;2.20;;;;;;;23.69;32.74;94955.34;6166097;28;104798;-75
2022/09/19 09:08:34;;;;;;;3.67;2.57;;;;;;;23.69;33.08;94964.16;6166473;28;102861;-76
2022/09/19 09:11:48;;;;;;;2.57;2.37;;;;;;;23.69;33.14;94963.34;6159312;28;105091;-76
2022/09/19 09:15:03;;;;;;;3.80;2.80;;;;;;;23.68;32.76;94957.22;6165598;28;103414;-76
2022/09/19 09:18:45;;;;;;;2.70;2.50;;;;;;;23.71;33.26;94958.50;6165517;28;103201;-77
2022/09/19 09:22:01;;;;;;;3.17;2.67;;;;;;;23.71;32.99;94953.94;6162701;28;103979;-75
2022/09/19 09:25:13;;;;;;;3.20;2.30;;;;;;;23.70;33.36;94952.38;6164208;28;103860;-76
2022/09/19 09:28:25;;;;;;;1.97;1.83;;;;;;;23.72;32.98;94952.84;6166276;28;106399;-77
2022/09/19 09:31:35;;;;;;;2.90;2.13;;;;;;;23.77;32.97;94939.31;6165733;28;103084;-76
2022/09/19 09:34:43;;;;;;;3.20;2.40;;;;;;;23.77;33.00;94941.19;6158934;28;103482;-76
2022/09/19 09:37:57;;;;;;;3.23;2.93;;;;;;;23.77;32.89;94925.16;6165158;28;103429;-77
2022/09/19 09:44:58;;;;;;;3.67;3.37;;;;;;;23.76;33.10;94905.66;6162077;28;104405;-78
2022/09/19 09:48:10;;;;;;;3.30;3.00;;;;;;;23.75;32.69;94896.09;6164964;28;106497;-76
2022/09/19 09:51:25;;;;;;;4.23;3.17;;;;;;;23.74;33.18;94901.75;6165235;28;104679;-75
2022/09/19 09:58:13;;;;;;;4.33;3.27;;;;;;;23.73;32.77;94892.94;6158814;28;105516;-76
2022/09/19 10:04:51;;;;;;;3.90;2.80;;;;;;;23.74;32.74;94899.06;6165163;28;104180;-76
2022/09/19 10:08:04;;;;;;;3.87;3.53;;;;;;;23.71;32.91;94894.38;6159979;28;103789;-76
2022/09/19 10:11:14;;;;;;;3.20;2.90;;;;;;;23.67;32.50;94888.88;6165551;28;105501;-76
2022/09/19 10:14:39;;;;;;;3.13;2.70;;;;;;;23.66;31.59;94883.84;6164896;28;103059;-75
2022/09/19 10:17:49;;;;;;;2.73;2.53;;;;;;;23.64;31.04;94886.06;6163838;28;103112;-75
2022/09/19 10:20:54;;;;;;;3.17;2.50;;;;;;;23.64;31.05;94880.72;6158399;28;103452;-77
2022/09/19 10:23:59;;;;;;;2.93;2.67;;;;;;;23.63;30.38;94877.25;6165386;28;104556;-76
2022/09/19 10:27:10;;;;;;;3.20;2.30;;;;;;;23.61;30.34;94884.81;6165162;28;105427;-76
2022/09/19 10:30:18;;;;;;;2.43;2.23;;;;;;;23.60;30.63;94875.22;6160240;28;103254;-79
2022/09/19 10:33:38;;;;;;;2.17;1.60;;;;;;;23.54;30.18;94866.63;6164620;28;103679;-78
2022/09/19 10:36:48;;;;;;;2.27;1.60;;;;;;;23.53;30.48;94866.94;6164414;28;103617;-76
2022/09/19 10:39:51;;;;;;;3.13;1.93;;;;;;;23.51;30.08;94853.09;6164997;28;105107;-76
2022/09/19 10:42:56;;;;;;;1.90;1.60;;;;;;;23.50;30.03;94846.19;6158689;28;106682;-76
2022/09/19 10:46:06;;;;;;;1.70;1.60;;;;;;;23.51;30.40;94847.75;6164195;28;103460;-76
2022/09/19 10:49:19;;;;;;;3.50;1.90;;;;;;;23.46;30.02;94837.25;6163864;28;103360;-77
2022/09/19 10:52:30;;;;;;;1.83;1.73;;;;;;;23.48;30.52;94832.38;6161625;28;103601;-76
2022/09/19 10:56:02;;;;;;;2.60;2.00;;;;;;;23.48;30.99;94827.03;6162388;28;103493;-76
2022/09/19 10:59:20;;;;;;;2.47;2.20;;;;;;;23.45;31.09;94819.66;6164519;28;103010;-75
2022/09/19 11:02:25;;;;;;;2.40;2.20;;;;;;;23.38;31.29;94811.38;6164469;28;103286;-76
2022/09/19 11:05:31;;;;;;;4.40;2.93;;;;;;;23.43;31.65;94816.53;6157473;28;103188;-76
2022/09/19 11:08:43;;;;;;;5.13;4.60;;;;;;;23.42;31.72;94813.06;6165062;28;103114;-76
2022/09/19 11:11:48;;;;;;;4.87;4.37;;;;;;;23.40;31.65;94799.25;6165090;28;104818;-77
2022/09/19 11:14:55;;;;;;;5.20;4.80;;;;;;;23.38;31.13;94795.34;6163978;28;103940;-78
2022/09/19 11:18:11;;;;;;;6.10;4.10;;;;;;;23.35;31.42;94785.28;6160243;28;106567;-77
2022/09/19 11:21:28;;;;;;;5.00;4.60;;;;;;;23.35;31.83;94775.38;6163427;28;103350;-76
2022/09/19 11:24:49;;;;;;;4.00;3.70;;;;;;;23.29;33.35;94779.34;6163884;28;103630;-77
2022/09/19 11:28:06;;;;;;;5.63;5.23;;;;;;;23.25;33.67;94784.50;6159606;28;104066;-78
2022/09/19 11:31:17;;;;;;;5.30;4.80;;;;;;;23.26;33.03;94775.41;6164416;28;104414;-78
2022/09/19 11:34:49;;;;;;;4.23;3.80;;;;;;;23.18;32.92;94762.84;6164351;28;103988;-77
2022/09/19 11:38:21;;;;;;;4.47;4.07;;;;;;;23.26;32.39;94774.63;6161358;28;103048;-81
2022/09/19 11:42:00;;;;;;;6.20;5.70;;;;;;;23.25;32.82;94770.38;6164511;28;103011;-78
2022/09/19 11:45:12;;;;;;;8.00;7.40;;;;;;;23.22;32.68;94766.47;6165095;28;107196;-75
2022/09/19 11:48:36;;;;;;;9.27;8.47;;;;;;;23.23;32.50;94757.34;6164890;28;106480;-76
2022/09/19 11:51:50;;;;;;;7.50;6.80;;;;;;;23.20;33.01;94760.66;6157945;28;104845;-75
2022/09/19 11:55:07;;;;;;;8.20;7.50;;;;;;;23.18;32.90;94759.41;6162538;28;103646;-75
2022/09/19 11:58:22;;;;;;;9.00;8.20;;;;;;;23.14;32.75;94751.25;6163774;28;104451;-77
2022/09/19 12:01:40;;;;;;;8.40;7.70;;;;;;;23.13;33.03;94748.91;6157614;28;104198;-77
2022/09/19 12:05:00;;;;;;;9.17;8.27;;;;;;;23.14;32.72;94751.25;6163509;28;103728;-78
2022/09/19 12:08:17;;;;;;;8.30;7.60;;;;;;;23.13;32.52;94746.22;6163134;28;103030;-75
2022/09/19 12:11:26;;;;;;;8.03;7.33;;;;;;;23.13;32.60;94746.22;6163667;28;107694;-77
2022/09/19 12:14:39;;;;;;;9.60;8.60;;;;;;;23.10;32.63;94745.00;6156956;28;103169;-77
2022/09/19 12:17:50;;;;;;;8.97;8.03;;;;;;;23.13;32.38;94739.00;6162817;28;103295;-74
2022/09/19 12:20:58;;;;;;;7.80;7.20;;;;;;;23.01;32.71;94714.88;6164161;28;102846;-77
2022/09/19 12:27:34;;;;;;;9.43;8.53;;;;;;;23.12;32.22;94718.75;6166940;28;102698;-78
2022/09/19 12:30:44;;;;;;;7.30;6.57;;;;;;;23.03;32.78;94704.69;6167512;28;103676;-75
2022/09/19 12:33:53;;;;;;;6.83;6.23;;;;;;;23.09;32.53;94718.63;6166783;28;103443;-77
2022/09/19 12:37:02;;;;;;;7.77;7.17;;;;;;;23.08;32.62;94712.50;6161295;28;103298;-76
2022/09/19 12:40:15;;;;;;;7.10;6.50;;;;;;;23.06;32.43;94719.25;6166476;28;103227;-75
2022/09/19 12:43:27;;;;;;;7.50;6.80;;;;;;;23.06;32.15;94709.38;6166559;28;103579;-77
2022/09/19 12:46:41;;;;;;;8.50;7.70;;;;;;;23.05;32.36;94713.16;6161376;28;104154;-77
2022/09/19 12:49:56;;;;;;;8.90;8.10;;;;;;;23.01;32.28;94696.97;6166362;28;102828;-77
2022/09/19 12:53:14;;;;;;;8.70;7.90;;;;;;;23.04;32.48;94698.22;6167007;28;103171;-77
2022/09/19 12:56:22;;;;;;;9.93;8.97;;;;;;;23.05;32.36;94697.13;6167130;28;103736;-76
2022/09/19 12:59:27;;;;;;;9.63;8.83;;;;;;;23.05;31.88;94701.69;6159926;28;104078;-76
2022/09/19 13:02:36;;;;;;;9.10;8.30;;;;;;;23.04;31.80;94700.91;6166606;28;103320;-76
2022/09/19 13:05:45;;;;;;;7.07;6.40;;;;;;;23.03;31.59;94688.66;6166208;28;103170;-77
2022/09/19 13:08:53;;;;;;;6.43;4.90;;;;;;;23.00;31.24;94690.06;6164073;28;103426;-76
2022/09/19 13:12:04;;;;;;;5.40;4.90;;;;;;;22.98;31.13;94683.47;6164347;28;104245;-75
2022/09/19 13:15:19;;;;;;;6.20;5.70;;;;;;;23.01;30.98;94686.28;6166044;28;103086;-76
2022/09/19 13:25:14;;;;;;;6.33;5.83;;;;;;;22.99;31.42;94675.16;6165631;28;103247;-76
2022/09/19 13:28:45;;;;;;;5.33;4.93;;;;;;;22.94;31.25;94670.00;6165920;28;103436;-77
2022/09/19 13:32:00;;;;;;;5.80;5.30;;;;;;;22.97;31.44;94668.56;6159285;28;103348;-76
2022/09/19 13:35:22;;;;;;;4.10;3.63;;;;;;;22.98;30.66;94667.47;6164977;28;103649;-76
2022/09/19 13:38:38;;;;;;;4.70;3.80;;;;;;;22.95;30.30;94658.22;6165071;28;103357;-76
2022/09/19 13:41:47;;;;;;;4.20;3.60;;;;;;;22.96;30.54;94667.00;6165945;28;104104;-76
2022/09/19 13:45:01;;;;;;;3.93;3.43;;;;;;;22.95;30.92;94668.13;6159688;28;103612;-76
2022/09/19 13:48:13;;;;;;;5.13;4.10;;;;;;;22.92;30.77;94661.53;6164848;28;103494;-75
2022/09/19 13:51:31;;;;;;;4.33;3.93;;;;;;;22.87;30.33;94650.28;6165488;28;104160;-76
2022/09/19 13:54:44;;;;;;;4.30;3.90;;;;;;;22.93;30.55;94662.31;6158973;28;105862;-76
2022/09/19 13:57:48;;;;;;;3.77;3.40;;;;;;;22.92;30.55;94658.88;6165443;28;105277;-76
2022/09/19 14:01:21;;;;;;;4.70;3.60;;;;;;;22.91;30.15;94656.53;6164780;28;104551;-78
2022/09/19 14:04:57;;;;;;;4.40;3.70;;;;;;;22.93;30.68;94656.97;6164106;28;103017;-77
2022/09/19 14:08:05;;;;;;;4.60;3.50;;;;;;;22.78;30.03;94638.84;6159741;28;103348;-76
2022/09/19 14:11:31;;;;;;;4.20;3.70;;;;;;;22.88;30.28;94649.94;6164769;28;103117;-76
2022/09/19 14:14:55;;;;;;;4.37;2.90;;;;;;;22.88;30.59;94652.63;6165201;28;103646;-77
2022/09/19 14:18:32;;;;;;;5.90;3.23;;;;;;;22.89;30.25;94658.72;6158703;28;103538;-76
2022/09/19 14:21:57;;;;;;;5.13;4.50;;;;;;;22.88;30.09;94657.94;6164874;28;103000;-77
2022/09/19 14:25:05;;;;;;;5.70;4.90;;;;;;;22.87;30.71;94645.72;6165275;28;103094;-78
2022/09/19 14:28:54;;;;;;;7.53;5.37;;;;;;;22.86;30.08;94648.69;6161977;28;103660;-77
2022/09/19 14:32:12;;;;;;;5.93;4.87;;;;;;;22.86;30.08;94654.03;6074057;28;103693;-77
2022/09/19 14:35:44;;;;;;;4.20;3.70;;;;;;;22.86;30.58;94656.72;6164945;28;106973;-77
2022/09/19 14:39:17;;;;;;;3.50;3.20;;;;;;;22.87;30.30;94656.38;6162123;28;103218;-77
2022/09/19 14:42:50;;;;;;;3.93;3.43;;;;;;;22.86;30.35;94660.16;6143460;28;105088;-77
2022/09/19 14:46:20;;;;;;;4.90;3.33;;;;;;;22.89;30.63;94664.06;6163635;28;103477;-77
2022/09/19 14:49:28;;;;;;;4.30;3.83;;;;;;;22.93;31.16;94659.66;6164138;28;104676;-76
2022/09/19 14:52:32;;;;;;;3.80;3.20;;;;;;;22.90;29.45;94660.28;6156680;28;103442;-76
2022/09/19 14:55:43;;;;;;;6.13;3.63;;;;;;;22.95;30.39;94660.09;6164095;28;103688;-77
2022/09/19 14:58:53;;;;;;;5.07;3.57;;;;;;;23.00;31.21;94647.38;6164157;28;104015;-77
2022/09/19 15:02:07;;;;;;;10.53;4.33;;;;;;;23.05;31.71;94654.44;6160864;28;104197;-76
2022/09/19 15:05:17;;;;;;;29.13;6.30;;;;;;;23.08;32.58;94659.13;6160480;28;106448;-77